Time;durP1;ratioP1;P1;durP2;ratioP2;P2;SDS_P1;SDS_P2;PMS_P1;PMS_P2;Temp;Humidity;BMP_temperature;BMP_pressure;BME280_temperature;BME280_humidity;BME280_pressure;Samples;Min_cycle;Max_cycle;Signal;HPM_P1;HPM_P2
2023/04/18 00:00:04;;;;;;;;;;;;;;;;;;2071763;28;20485;-91
2023/04/18 00:01:05;;;;;;;18.67;9.80;;;;;;;;;;2071222;28;20458;-90
2023/04/18 00:02:06;;;;;;;17.90;10.70;;;;;;;;;;2071101;28;20025;-92
2023/04/18 00:03:08;;;;;;;15.68;9.85;;;;;;;;;;2080324;28;20404;-92
2023/04/18 00:04:12;;;;;;;16.48;10.52;;;;;;;;;;2071174;28;20026;-92
2023/04/18 00:05:16;;;;;;;15.90;9.35;;;;;;;;;;2071505;28;20021;-90
2023/04/18 00:06:21;;;;;;;17.30;9.82;;;;;;;;;;2079761;28;20025;-91
2023/04/18 00:07:21;;;;;;;16.85;10.35;;;;;;;;;;2070799;28;20121;-90
2023/04/18 00:08:22;;;;;;;;;;;;;;;;;;2071408;28;20029;-90
2023/04/18 00:09:23;;;;;;;18.73;9.93;;;;;;;;;;2079437;28;19908;-90
2023/04/18 00:10:24;;;;;;;18.88;10.43;;;;;;;;;;2070563;28;20141;-90
2023/04/18 00:11:24;;;;;;;;;;;;;;;;;;2071114;28;20026;-88
2023/04/18 00:12:24;;;;;;;17.33;10.20;;;;;;;;;;2070567;28;20262;-90
2023/04/18 00:13:27;;;;;;;15.75;9.68;;;;;;;;;;2070325;28;20025;-90
2023/04/18 00:14:28;;;;;;;17.75;11.15;;;;;;;;;;2070441;28;20033;-89
2023/04/18 00:15:30;;;;;;;17.33;10.38;;;;;;;;;;2070184;28;20052;-90
2023/04/18 00:16:32;;;;;;;18.83;11.18;;;;;;;;;;2078528;28;20049;-90
2023/04/18 00:17:34;;;;;;;16.60;9.98;;;;;;;;;;2070229;28;20128;-90
2023/04/18 00:18:35;;;;;;;16.58;10.35;;;;;;;;;;2070215;28;20453;-89
2023/04/18 00:19:37;;;;;;;17.40;10.80;;;;;;;;;;2079186;28;20075;-90
2023/04/18 00:20:38;;;;;;;16.13;9.88;;;;;;;;;;2079351;28;20095;-90
2023/04/18 00:21:43;;;;;;;18.75;10.82;;;;;;;;;;2079311;28;20488;-90
2023/04/18 00:22:46;;;;;;;17.23;10.77;;;;;;;;;;2082154;28;20021;-90
2023/04/18 00:23:47;;;;;;;17.27;10.77;;;;;;;;;;2079129;28;20029;-90
2023/04/18 00:24:48;;;;;;;16.52;9.82;;;;;;;;;;2078306;28;20418;-90
2023/04/18 00:25:49;;;;;;;16.27;10.48;;;;;;;;;;2070055;28;20152;-90
2023/04/18 00:26:49;;;;;;;14.15;9.60;;;;;;;;;;2070228;28;20038;-89
2023/04/18 00:27:50;;;;;;;17.73;10.43;;;;;;;;;;2078872;28;20033;-89
2023/04/18 00:28:50;;;;;;;;;;;;;;;;;;2079530;28;20029;-90
2023/04/18 00:29:50;;;;;;;16.40;9.70;;;;;;;;;;2078908;28;19956;-90
2023/04/18 00:30:51;;;;;;;;;;;;;;;;;;2079576;28;20076;-90
2023/04/18 00:31:51;;;;;;;14.13;9.70;;;;;;;;;;2073516;28;19925;-90
2023/04/18 00:32:51;;;;;;;15.13;9.50;;;;;;;;;;2074683;28;20026;-89
2023/04/18 00:33:52;;;;;;;19.10;10.13;;;;;;;;;;2078679;28;20068;-91
2023/04/18 00:34:53;;;;;;;;;;;;;;;;;;2081572;28;20014;-90
2023/04/18 00:35:54;;;;;;;18.30;10.60;;;;;;;;;;2080984;28;19916;-89
2023/04/18 00:36:54;;;;;;;16.00;9.70;;;;;;;;;;2079668;28;20049;-89
2023/04/18 00:37:54;;;;;;;;;;;;;;;;;;2065020;28;20069;-89
2023/04/18 00:38:57;;;;;;;16.83;10.47;;;;;;;;;;2070829;28;20411;-90
2023/04/18 00:39:57;;;;;;;16.17;9.85;;;;;;;;;;2079367;28;20049;-89
2023/04/18 00:41:02;;;;;;;16.42;9.50;;;;;;;;;;2070031;28;20491;-90
2023/04/18 00:42:03;;;;;;;17.45;10.65;;;;;;;;;;2070859;28;20054;-89
2023/04/18 00:43:05;;;;;;;19.08;10.85;;;;;;;;;;2070399;28;20025;-90
2023/04/18 00:44:06;;;;;;;16.77;9.95;;;;;;;;;;1718464;28;10182050;-89
2023/04/18 00:45:07;;;;;;;;;;;;;;;;;;2070868;28;20504;-91
2023/04/18 00:46:08;;;;;;;15.43;9.97;;;;;;;;;;2070900;28;19993;-90
2023/04/18 00:47:08;;;;;;;20.05;11.15;;;;;;;;;;2070376;28;20507;-91
2023/04/18 00:48:09;;;;;;;17.50;10.63;;;;;;;;;;2070534;28;20033;-90
2023/04/18 00:49:10;;;;;;;18.15;11.02;;;;;;;;;;2078839;28;20029;-91
2023/04/18 00:50:18;;;;;;;15.57;10.00;;;;;;;;;;2083897;28;20029;-91
2023/04/18 00:51:20;;;;;;;18.05;11.07;;;;;;;;;;2090008;28;20013;-90
2023/04/18 00:52:20;;;;;;;17.77;10.18;;;;;;;;;;2090111;28;20096;-90
2023/04/18 00:53:21;;;;;;;15.13;9.40;;;;;;;;;;2086971;28;20029;-90
2023/04/18 00:54:23;;;;;;;16.45;10.20;;;;;;;;;;2082274;28;20055;-91
2023/04/18 00:55:24;;;;;;;16.23;10.43;;;;;;;;;;2071489;28;20053;-90
2023/04/18 00:56:24;;;;;;;16.52;10.98;;;;;;;;;;2062446;28;20045;-90
2023/04/18 00:57:25;;;;;;;19.25;11.05;;;;;;;;;;2070378;28;20041;-90
2023/04/18 00:58:25;;;;;;;;;;;;;;;;;;2079591;28;20029;-90
2023/04/18 00:59:26;;;;;;;15.00;10.30;;;;;;;;;;2078945;28;20269;-91
2023/04/18 01:00:26;;;;;;;20.30;11.25;;;;;;;;;;2070655;28;20029;-91
2023/04/18 01:01:26;;;;;;;;;;;;;;;;;;2071061;28;20259;-90
2023/04/18 01:02:30;;;;;;;19.77;10.90;;;;;;;;;;2078549;28;20368;-88
2023/04/18 01:03:31;;;;;;;14.57;10.02;;;;;;;;;;2079187;28;20041;-89
2023/04/18 01:04:32;;;;;;;17.83;11.32;;;;;;;;;;2070721;28;20405;-88
2023/04/18 01:05:37;;;;;;;16.13;11.48;;;;;;;;;;2062663;28;20026;-91
2023/04/18 01:06:37;;;;;;;19.52;11.60;;;;;;;;;;2065651;28;20460;-93
2023/04/18 01:07:40;;;;;;;14.52;10.27;;;;;;;;;;2065560;28;20070;-93
2023/04/18 01:08:41;;;;;;;16.45;10.07;;;;;;;;;;2073981;28;20036;-94
2023/04/18 01:09:43;;;;;;;16.15;10.05;;;;;;;;;;2082656;28;20046;-93
2023/04/18 01:10:43;;;;;;;17.35;10.75;;;;;;;;;;2082111;28;20041;-94
2023/04/18 01:11:44;;;;;;;18.13;11.35;;;;;;;;;;2082167;28;20551;-94
2023/04/18 01:12:44;;;;;;;16.42;10.43;;;;;;;;;;2073895;28;20508;-93
2023/04/18 01:14:01;;;;;;;22.20;11.13;;;;;;;;;;2073679;28;20148;-94
2023/04/18 01:15:04;;;;;;;17.52;10.85;;;;;;;;;;2076003;28;20025;-94
2023/04/18 01:16:05;;;;;;;19.60;11.63;;;;;;;;;;2073457;28;20510;-94
2023/04/18 01:17:09;;;;;;;14.10;10.20;;;;;;;;;;2065370;28;20018;-93
2023/04/18 01:18:15;;;;;;;19.45;11.60;;;;;;;;;;2073300;28;20030;-92
2023/04/18 01:19:16;;;;;;;22.48;12.13;;;;;;;;;;2073079;28;20113;-92
2023/04/18 01:20:19;;;;;;;19.33;11.38;;;;;;;;;;1726073;28;10001592;-93
2023/04/18 01:21:22;;;;;;;15.95;10.38;;;;;;;;;;2080983;28;20599;-92
2023/04/18 01:22:23;;;;;;;15.82;10.57;;;;;;;;;;2072828;28;20030;-93
2023/04/18 01:23:23;;;;;;;14.90;9.90;;;;;;;;;;2073183;28;20543;-94
2023/04/18 01:24:25;;;;;;;17.85;10.75;;;;;;;;;;2064563;28;20435;-92
2023/04/18 01:25:26;;;;;;;16.73;10.43;;;;;;;;;;2065363;28;20200;-94
2023/04/18 01:26:30;;;;;;;13.98;10.05;;;;;;;;;;2073407;28;20021;-92
2023/04/18 01:27:30;;;;;;;14.07;9.77;;;;;;;;;;2083849;28;20037;-92
2023/04/18 01:28:35;;;;;;;21.85;10.93;;;;;;;;;;2090712;28;20025;-92
2023/04/18 01:29:38;;;;;;;16.67;10.73;;;;;;;;;;2082960;28;20034;-92
2023/04/18 01:30:41;;;;;;;20.02;11.02;;;;;;;;;;2065658;28;20046;-93
2023/04/18 01:31:42;;;;;;;17.02;10.50;;;;;;;;;;2065765;28;20054;-92
2023/04/18 01:32:43;;;;;;;16.42;10.23;;;;;;;;;;2065450;28;20022;-93
2023/04/18 01:33:44;;;;;;;17.35;10.40;;;;;;;;;;2073389;28;20056;-93
2023/04/18 01:34:44;;;;;;;14.55;10.13;;;;;;;;;;2073485;28;20074;-93
2023/04/18 01:35:45;;;;;;;;;;;;;;;;;;2073891;28;20026;-93
2023/04/18 01:36:45;;;;;;;16.33;10.30;;;;;;;;;;2065367;28;20296;-93
2023/04/18 01:37:48;;;;;;;17.92;10.23;;;;;;;;;;2073328;28;20456;-91
2023/04/18 01:38:49;;;;;;;18.00;10.75;;;;;;;;;;2081225;28;20485;-91
2023/04/18 01:39:58;;;;;;;15.55;9.57;;;;;;;;;;2080333;28;20029;-91
2023/04/18 01:41:01;;;;;;;16.70;11.27;;;;;;;;;;2071970;28;20026;-89
2023/04/18 01:42:01;;;;;;;15.73;10.25;;;;;;;;;;2072568;28;20060;-91
2023/04/18 01:43:02;;;;;;;16.02;10.35;;;;;;;;;;2071851;28;20474;-90
2023/04/18 01:44:03;;;;;;;15.40;9.45;;;;;;;;;;2072183;28;20026;-90
2023/04/18 01:45:05;;;;;;;16.23;9.35;;;;;;;;;;2072313;28;20492;-91
2023/04/18 01:46:06;;;;;;;16.25;9.60;;;;;;;;;;2064186;28;20022;-91
2023/04/18 01:47:07;;;;;;;14.27;8.82;;;;;;;;;;2071879;28;20469;-91
2023/04/18 01:48:07;;;;;;;14.93;9.25;;;;;;;;;;2081180;28;20481;-90
2023/04/18 01:49:08;;;;;;;14.82;8.90;;;;;;;;;;2080687;28;20077;-91
2023/04/18 01:50:09;;;;;;;16.08;9.65;;;;;;;;;;2071779;28;20045;-91
2023/04/18 01:51:10;;;;;;;14.20;9.05;;;;;;;;;;2071757;28;20553;-90
2023/04/18 01:52:12;;;;;;;13.98;9.02;;;;;;;;;;2080676;28;20108;-90
2023/04/18 01:53:13;;;;;;;15.63;9.15;;;;;;;;;;2080486;28;20472;-90
2023/04/18 01:54:14;;;;;;;12.05;9.00;;;;;;;;;;2071564;28;20098;-90
2023/04/18 01:55:14;;;;;;;16.30;10.02;;;;;;;;;;2071852;28;20634;-90
2023/04/18 01:56:15;;;;;;;15.57;8.98;;;;;;;;;;2071803;28;20037;-90
2023/04/18 01:57:15;;;;;;;;;;;;;;;;;;2071941;28;20077;-89
2023/04/18 01:58:17;;;;;;;14.80;9.17;;;;;;;;;;2079803;28;19998;-89
2023/04/18 01:59:17;;;;;;;14.45;8.82;;;;;;;;;;2071431;28;20036;-90
2023/04/18 02:00:18;;;;;;;13.27;9.13;;;;;;;;;;2063369;28;20022;-90
2023/04/18 02:01:19;;;;;;;13.65;8.48;;;;;;;;;;2071522;28;20166;-89
2023/04/18 02:02:19;;;;;;;13.70;8.43;;;;;;;;;;2071713;28;20530;-88
2023/04/18 02:03:20;;;;;;;14.30;9.27;;;;;;;;;;2071557;28;20034;-89
2023/04/18 02:04:20;;;;;;;;;;;;;;;;;;2072159;28;20080;-88
2023/04/18 02:05:21;;;;;;;11.77;8.27;;;;;;;;;;2063163;28;20363;-89
2023/04/18 02:06:21;;;;;;;;;;;;;;;;;;2063832;28;20052;-88
2023/04/18 02:07:22;;;;;;;14.43;9.50;;;;;;;;;;2071114;28;20203;-92
2023/04/18 02:08:22;;;;;;;15.20;9.02;;;;;;;;;;2071785;28;20501;-91
2023/04/18 02:09:23;;;;;;;15.88;8.57;;;;;;;;;;2071646;28;20113;-90
2023/04/18 02:10:23;;;;;;;14.40;8.90;;;;;;;;;;2080773;28;20033;-91
2023/04/18 02:11:23;;;;;;;;;;;;;;;;;;2080073;28;20436;-88
2023/04/18 02:12:24;;;;;;;17.13;9.50;;;;;;;;;;2071688;28;19917;-91
2023/04/18 02:13:25;;;;;;;16.33;9.73;;;;;;;;;;2071439;28;20030;-89
2023/04/18 02:14:26;;;;;;;13.60;9.38;;;;;;;;;;2071491;28;20018;-88
2023/04/18 02:15:26;;;;;;;15.15;9.32;;;;;;;;;;2079563;28;20127;-89
2023/04/18 02:16:26;;;;;;;17.80;9.57;;;;;;;;;;2071512;28;20053;-89
2023/04/18 02:17:28;;;;;;;19.15;10.43;;;;;;;;;;2064874;28;20077;-89
2023/04/18 02:18:29;;;;;;;17.38;9.43;;;;;;;;;;2062844;28;20053;-90
2023/04/18 02:19:29;;;;;;;13.75;8.77;;;;;;;;;;2071772;28;20025;-89
2023/04/18 02:20:33;;;;;;;16.35;9.13;;;;;;;;;;2080217;28;20036;-90
2023/04/18 02:21:34;;;;;;;13.10;8.70;;;;;;;;;;2087596;28;20096;-90
2023/04/18 02:22:36;;;;;;;14.80;9.30;;;;;;;;;;2090601;28;20036;-90
2023/04/18 02:23:37;;;;;;;13.57;8.48;;;;;;;;;;2072152;28;20030;-91
2023/04/18 02:24:37;;;;;;;11.27;8.02;;;;;;;;;;2071955;28;20177;-90
2023/04/18 02:25:38;;;;;;;12.88;8.60;;;;;;;;;;2081021;28;20394;-91
2023/04/18 02:26:39;;;;;;;;;;;;;;;;;;2080859;28;20107;-91
2023/04/18 02:27:39;;;;;;;13.73;8.40;;;;;;;;;;2080496;28;19965;-91
2023/04/18 02:28:40;;;;;;;18.08;9.98;;;;;;;;;;2071894;28;20115;-91
2023/04/18 02:29:40;;;;;;;15.15;9.15;;;;;;;;;;2071639;28;20037;-91
2023/04/18 02:30:40;;;;;;;13.45;8.85;;;;;;;;;;2080590;28;20562;-89
2023/04/18 02:31:41;;;;;;;13.00;9.05;;;;;;;;;;2080424;28;20060;-89
2023/04/18 02:32:41;;;;;;;14.23;9.10;;;;;;;;;;2079982;28;20037;-91
2023/04/18 02:33:42;;;;;;;;;;;;;;;;;;2082786;28;20108;-91
2023/04/18 02:34:43;;;;;;;19.80;9.43;;;;;;;;;;2079811;28;19931;-89
2023/04/18 02:35:43;;;;;;;14.48;8.40;;;;;;;;;;2079923;28;20022;-90
2023/04/18 02:36:43;;;;;;;16.67;8.50;;;;;;;;;;2079919;28;20049;-89
2023/04/18 02:37:44;;;;;;;11.93;7.85;;;;;;;;;;2063616;28;20034;-90
2023/04/18 02:38:44;;;;;;;;;;;;;;;;;;2072193;28;20030;-89
2023/04/18 02:39:45;;;;;;;12.53;9.00;;;;;;;;;;2063371;28;19925;-90
2023/04/18 02:40:45;;;;;;;14.80;9.00;;;;;;;;;;2071586;28;20033;-89
2023/04/18 02:41:46;;;;;;;14.13;9.40;;;;;;;;;;2071928;28;20061;-89
2023/04/18 02:42:46;;;;;;;16.00;9.30;;;;;;;;;;2064254;28;20476;-90
2023/04/18 02:43:46;;;;;;;14.30;9.45;;;;;;;;;;2071624;28;20084;-90
2023/04/18 02:44:47;;;;;;;15.32;9.43;;;;;;;;;;2071841;28;20030;-90
2023/04/18 02:45:47;;;;;;;13.70;8.88;;;;;;;;;;2080596;28;20078;-90
2023/04/18 02:46:48;;;;;;;16.23;10.07;;;;;;;;;;2080012;28;20096;-90
2023/04/18 02:47:48;;;;;;;14.82;9.57;;;;;;;;;;2071077;28;20029;-90
2023/04/18 02:48:49;;;;;;;13.10;8.75;;;;;;;;;;2071385;28;20120;-90
2023/04/18 02:49:50;;;;;;;15.25;9.15;;;;;;;;;;2079897;28;20128;-90
2023/04/18 02:50:50;;;;;;;13.00;8.80;;;;;;;;;;2080604;28;20625;-91
2023/04/18 02:51:53;;;;;;;;;;;;;;;;;;2079797;28;20037;-91
2023/04/18 02:52:54;;;;;;;13.18;9.18;;;;;;;;;;2079569;28;19909;-90
2023/04/18 02:53:55;;;;;;;14.45;9.25;;;;;;;;;;2080290;28;20033;-91
2023/04/18 02:54:55;;;;;;;16.00;9.18;;;;;;;;;;2079319;28;20030;-90
2023/04/18 02:55:56;;;;;;;13.82;8.90;;;;;;;;;;2079295;28;20025;-90
2023/04/18 02:56:56;;;;;;;;;;;;;;;;;;2080433;28;20025;-91
2023/04/18 02:57:57;;;;;;;12.73;7.90;;;;;;;;;;2070942;28;19932;-91
2023/04/18 02:58:57;;;;;;;;;;;;;;;;;;2071424;28;20120;-90
2023/04/18 02:59:58;;;;;;;10.97;7.30;;;;;;;;;;2079323;28;19909;-91
2023/04/18 03:00:58;;;;;;;12.52;8.93;;;;;;;;;;2081765;28;20029;-91
2023/04/18 03:01:59;;;;;;;14.07;9.27;;;;;;;;;;2081517;28;20033;-90
2023/04/18 03:03:01;;;;;;;14.55;7.93;;;;;;;;;;2079568;28;20165;-91
2023/04/18 03:04:01;;;;;;;14.73;8.00;;;;;;;;;;2077017;28;20031;-90
2023/04/18 03:05:02;;;;;;;11.23;7.10;;;;;;;;;;2075109;28;20044;-91
2023/04/18 03:06:02;;;;;;;12.60;7.22;;;;;;;;;;2072703;28;20473;-91
2023/04/18 03:07:03;;;;;;;11.45;7.25;;;;;;;;;;2071611;28;20124;-91
2023/04/18 03:08:03;;;;;;;11.57;7.22;;;;;;;;;;2071515;28;20029;-91
2023/04/18 03:09:03;;;;;;;;;;;;;;;;;;2071145;28;20462;-91
2023/04/18 03:10:04;;;;;;;13.60;6.50;;;;;;;;;;2070693;28;20356;-90
2023/04/18 03:11:05;;;;;;;10.75;7.60;;;;;;;;;;2070473;28;20408;-90
2023/04/18 03:12:05;;;;;;;12.45;7.80;;;;;;;;;;2070427;28;20057;-90
2023/04/18 03:13:06;;;;;;;12.13;7.72;;;;;;;;;;2070387;28;20121;-90
2023/04/18 03:14:06;;;;;;;15.82;8.52;;;;;;;;;;2075138;28;20049;-90
2023/04/18 03:15:07;;;;;;;17.65;8.45;;;;;;;;;;2088966;28;20044;-89
2023/04/18 03:16:08;;;;;;;12.90;8.18;;;;;;;;;;2076531;28;20041;-90
2023/04/18 03:17:08;;;;;;;15.50;8.68;;;;;;;;;;2070846;28;20512;-90
2023/04/18 03:18:08;;;;;;;11.98;8.00;;;;;;;;;;2081207;28;20038;-90
2023/04/18 03:19:09;;;;;;;18.02;9.40;;;;;;;;;;2078591;28;20020;-90
2023/04/18 03:20:11;;;;;;;15.90;10.05;;;;;;;;;;2079281;28;20029;-90
2023/04/18 03:21:11;;;;;;;15.40;10.60;;;;;;;;;;2084858;28;20041;-90
2023/04/18 03:22:12;;;;;;;16.58;9.88;;;;;;;;;;2088139;28;20153;-90
2023/04/18 03:23:13;;;;;;;18.58;10.45;;;;;;;;;;2086480;28;20036;-89
2023/04/18 03:24:13;;;;;;;22.38;12.27;;;;;;;;;;2082667;28;20022;-89
2023/04/18 03:25:14;;;;;;;;;;;;;;;;;;2081081;28;20958;-91
2023/04/18 03:26:14;;;;;;;23.87;13.80;;;;;;;;;;2079564;28;19913;-90
2023/04/18 03:27:15;;;;;;;;;;;;;;;;;;2079193;28;20099;-90
2023/04/18 03:28:15;;;;;;;22.00;12.53;;;;;;;;;;2079283;28;20376;-90
2023/04/18 03:29:15;;;;;;;;;;;;;;;;;;2079591;28;20017;-89
2023/04/18 03:30:18;;;;;;;23.33;14.50;;;;;;;;;;2077956;28;19909;-92
2023/04/18 03:31:19;;;;;;;20.63;13.60;;;;;;;;;;2070247;28;20053;-91
2023/04/18 03:32:19;;;;;;;23.27;12.75;;;;;;;;;;2062223;28;20513;-90
2023/04/18 03:33:21;;;;;;;20.67;13.82;;;;;;;;;;2070394;28;20100;-91
2023/04/18 03:34:21;;;;;;;24.63;13.10;;;;;;;;;;2070338;28;20026;-91
2023/04/18 03:35:22;;;;;;;26.73;14.77;;;;;;;;;;2070424;28;20027;-91
2023/04/18 03:36:27;;;;;;;20.60;12.98;;;;;;;;;;2082318;28;20017;-90
2023/04/18 03:37:29;;;;;;;18.98;11.90;;;;;;;;;;2089283;28;20021;-90
2023/04/18 03:38:32;;;;;;;18.45;10.98;;;;;;;;;;2089002;28;20053;-91
2023/04/18 03:39:43;;;;;;;19.38;11.15;;;;;;;;;;2080635;28;20018;-90
2023/04/18 03:40:54;;;;;;;18.80;11.65;;;;;;;;;;2082686;28;20022;-91
2023/04/18 03:41:55;;;;;;;17.52;11.27;;;;;;;;;;2089802;28;20025;-90
2023/04/18 03:43:02;;;;;;;22.63;11.38;;;;;;;;;;2089763;28;20037;-91
2023/04/18 03:44:10;;;;;;;16.75;11.18;;;;;;;;;;2080835;28;20016;-92
2023/04/18 03:45:17;;;;;;;16.98;11.88;;;;;;;;;;2083783;28;20053;-90
2023/04/18 03:46:20;;;;;;;17.98;12.27;;;;;;;;;;2080554;28;20038;-90
2023/04/18 03:47:30;;;;;;;23.33;12.82;;;;;;;;;;2072243;28;20068;-92
2023/04/18 03:48:34;;;;;;;29.58;15.52;;;;;;;;;;2079420;28;20403;-91
2023/04/18 03:49:35;;;;;;;31.17;16.08;;;;;;;;;;2070202;28;20044;-90
2023/04/18 03:50:35;;;;;;;29.90;14.95;;;;;;;;;;2062122;28;20148;-90
2023/04/18 03:51:42;;;;;;;34.63;16.60;;;;;;;;;;2070303;28;20041;-91
2023/04/18 03:52:43;;;;;;;42.03;18.73;;;;;;;;;;2079282;28;20099;-90
2023/04/18 03:53:43;;;;;;;43.95;20.00;;;;;;;;;;2079061;28;20516;-90
2023/04/18 03:54:44;;;;;;;;;;;;;;;;;;2070703;28;20283;-91
2023/04/18 03:55:44;;;;;;;49.03;22.07;;;;;;;;;;2070589;28;19972;-90
2023/04/18 03:56:45;;;;;;;51.47;22.10;;;;;;;;;;2078949;28;20033;-90
2023/04/18 03:57:46;;;;;;;59.25;23.30;;;;;;;;;;2079294;28;20021;-91
2023/04/18 03:58:46;;;;;;;61.03;25.50;;;;;;;;;;2079277;28;20044;-91
2023/04/18 03:59:47;;;;;;;61.60;23.70;;;;;;;;;;2069980;28;20103;-90
2023/04/18 04:00:48;;;;;;;65.78;24.48;;;;;;;;;;2070284;28;20527;-90
2023/04/18 04:01:48;;;;;;;72.97;25.17;;;;;;;;;;2079513;28;20484;-89
2023/04/18 04:02:49;;;;;;;74.93;26.77;;;;;;;;;;2070320;28;20104;-92
2023/04/18 04:03:49;;;;;;;71.63;27.98;;;;;;;;;;2062501;28;20502;-90
2023/04/18 04:04:50;;;;;;;90.63;29.17;;;;;;;;;;2072750;28;20604;-92
2023/04/18 04:05:50;;;;;;;92.63;31.92;;;;;;;;;;2087396;28;20029;-88
2023/04/18 04:06:51;;;;;;;91.35;32.55;;;;;;;;;;2079683;28;20053;-90
2023/04/18 04:07:51;;;;;;;96.43;30.90;;;;;;;;;;2070635;28;20048;-91
2023/04/18 04:08:52;;;;;;;103.32;30.27;;;;;;;;;;2070579;28;20025;-90
2023/04/18 04:09:52;;;;;;;86.75;27.55;;;;;;;;;;2070449;28;20477;-91
2023/04/18 04:10:53;;;;;;;91.07;28.90;;;;;;;;;;2079252;28;20059;-91
2023/04/18 04:11:53;;;;;;;96.40;30.70;;;;;;;;;;2079621;28;20022;-90
2023/04/18 04:12:54;;;;;;;102.30;32.20;;;;;;;;;;2070328;28;20484;-90
2023/04/18 04:13:54;;;;;;;100.05;30.05;;;;;;;;;;2070072;28;20029;-89
2023/04/18 04:14:56;;;;;;;100.82;29.65;;;;;;;;;;2070232;28;20053;-89
2023/04/18 04:15:56;;;;;;;110.00;33.10;;;;;;;;;;2070646;28;20038;-91
2023/04/18 04:16:57;;;;;;;107.00;31.75;;;;;;;;;;2079405;28;20029;-89
2023/04/18 04:17:57;;;;;;;111.30;33.28;;;;;;;;;;2079303;28;20040;-89
2023/04/18 04:18:58;;;;;;;125.72;35.00;;;;;;;;;;2078972;28;20032;-89
2023/04/18 04:19:58;;;;;;;133.45;36.58;;;;;;;;;;2078757;28;20033;-89
2023/04/18 04:20:59;;;;;;;147.57;38.38;;;;;;;;;;2062239;28;20113;-91
2023/04/18 04:21:59;;;;;;;142.57;41.25;;;;;;;;;;2062066;28;20084;-91
2023/04/18 04:23:00;;;;;;;134.88;36.83;;;;;;;;;;2070491;28;20081;-89
2023/04/18 04:24:01;;;;;;;137.30;35.53;;;;;;;;;;2079009;28;20316;-89
2023/04/18 04:25:03;;;;;;;;;;;;;;;;;;2079289;28;20021;-89
2023/04/18 04:26:03;;;;;;;132.77;36.63;;;;;;;;;;2070111;28;19916;-92
2023/04/18 04:27:04;;;;;;;133.50;38.50;;;;;;;;;;2070293;28;20412;-91
2023/04/18 04:28:05;;;;;;;;;;;;;;;;;;2070483;28;20124;-91
2023/04/18 04:29:05;;;;;;;149.32;38.55;;;;;;;;;;2070114;28;19913;-91
2023/04/18 04:30:07;;;;;;;159.55;39.45;;;;;;;;;;2070348;28;20431;-91
2023/04/18 04:31:09;;;;;;;171.52;44.33;;;;;;;;;;2062222;28;20023;-89
2023/04/18 04:32:09;;;;;;;175.70;43.42;;;;;;;;;;2069890;28;20535;-90
2023/04/18 04:33:10;;;;;;;167.18;41.10;;;;;;;;;;2069914;28;20047;-90
2023/04/18 04:34:10;;;;;;;;;;;;;;;;;;2070643;28;20030;-90
2023/04/18 04:35:13;;;;;;;167.37;41.97;;;;;;;;;;2070077;28;19940;-90
2023/04/18 04:36:15;;;;;;;176.32;43.50;;;;;;;;;;2069981;28;20017;-90
2023/04/18 04:37:20;;;;;;;180.95;41.83;;;;;;;;;;2070348;28;20014;-91
2023/04/18 04:38:23;;;;;;;163.32;40.45;;;;;;;;;;2078969;28;20973;-91
2023/04/18 04:39:24;;;;;;;164.43;41.08;;;;;;;;;;2070114;28;20030;-91
2023/04/18 04:40:24;;;;;;;164.32;41.33;;;;;;;;;;2069945;28;20025;-91
2023/04/18 04:41:26;;;;;;;168.70;39.67;;;;;;;;;;2078578;28;20071;-90
2023/04/18 04:42:27;;;;;;;156.15;41.28;;;;;;;;;;2078718;28;20053;-89
2023/04/18 04:43:27;;;;;;;139.70;36.97;;;;;;;;;;2069768;28;20025;-90
2023/04/18 04:44:28;;;;;;;143.00;37.70;;;;;;;;;;2069710;28;20029;-90
2023/04/18 04:45:28;;;;;;;138.60;37.60;;;;;;;;;;2070167;28;20117;-90
2023/04/18 04:46:29;;;;;;;136.43;36.63;;;;;;;;;;2078295;28;20188;-90
2023/04/18 04:47:30;;;;;;;144.95;39.60;;;;;;;;;;2062137;28;20054;-91
2023/04/18 04:48:30;;;;;;;176.30;49.67;;;;;;;;;;2069953;28;20026;-91
2023/04/18 04:49:31;;;;;;;178.02;50.40;;;;;;;;;;2069662;28;20045;-90
2023/04/18 04:50:34;;;;;;;148.23;40.50;;;;;;;;;;2070090;28;20053;-90
2023/04/18 04:51:35;;;;;;;140.75;37.72;;;;;;;;;;2070020;28;20022;-90
2023/04/18 04:52:35;;;;;;;138.57;35.10;;;;;;;;;;2069867;28;20049;-90
2023/04/18 04:53:35;;;;;;;142.27;36.03;;;;;;;;;;2079004;28;20017;-89
2023/04/18 04:54:36;;;;;;;;;;;;;;;;;;2079595;28;20346;-89
2023/04/18 04:55:37;;;;;;;139.23;34.83;;;;;;;;;;2078782;28;19959;-89
2023/04/18 04:56:40;;;;;;;129.25;37.72;;;;;;;;;;2078895;28;20486;-89
2023/04/18 04:57:41;;;;;;;155.73;38.92;;;;;;;;;;2082264;28;20032;-91
2023/04/18 04:58:41;;;;;;;141.70;38.42;;;;;;;;;;2086554;28;20017;-91
2023/04/18 04:59:42;;;;;;;157.40;40.45;;;;;;;;;;2088703;28;20025;-90
2023/04/18 05:00:42;;;;;;;147.80;37.67;;;;;;;;;;2081413;28;20107;-90
2023/04/18 05:01:42;;;;;;;155.88;40.65;;;;;;;;;;2079296;28;20017;-91
2023/04/18 05:02:43;;;;;;;162.52;43.85;;;;;;;;;;2079759;28;20108;-90
2023/04/18 05:03:43;;;;;;;198.82;49.40;;;;;;;;;;2079968;28;20108;-92
2023/04/18 05:04:44;;;;;;;217.43;48.80;;;;;;;;;;2071171;28;20112;-90
2023/04/18 05:05:44;;;;;;;232.68;53.00;;;;;;;;;;2063324;28;20101;-90
2023/04/18 05:06:45;;;;;;;242.63;54.60;;;;;;;;;;2064292;28;20038;-91
2023/04/18 05:07:48;;;;;;;250.88;56.55;;;;;;;;;;2063786;28;20142;-91
2023/04/18 05:08:49;;;;;;;245.55;52.85;;;;;;;;;;2064412;28;20113;-94
2023/04/18 05:09:52;;;;;;;232.05;54.40;;;;;;;;;;2073253;28;20028;-92
2023/04/18 05:10:53;;;;;;;201.77;51.25;;;;;;;;;;2080088;28;20491;-92
2023/04/18 05:11:53;;;;;;;214.38;52.80;;;;;;;;;;2079565;28;20064;-91
2023/04/18 05:12:55;;;;;;;215.00;51.15;;;;;;;;;;2082046;28;20032;-92
2023/04/18 05:13:56;;;;;;;199.70;48.92;;;;;;;;;;2081106;28;20037;-92
2023/04/18 05:14:56;;;;;;;181.90;44.45;;;;;;;;;;2082845;28;20064;-91
2023/04/18 05:15:58;;;;;;;164.25;44.03;;;;;;;;;;2073614;28;20046;-90
2023/04/18 05:16:58;;;;;;;166.55;43.03;;;;;;;;;;2072393;28;20018;-92
2023/04/18 05:17:59;;;;;;;172.52;46.03;;;;;;;;;;2072275;28;20022;-91
2023/04/18 05:18:59;;;;;;;186.30;46.20;;;;;;;;;;2072735;28;20010;-92
2023/04/18 05:20:00;;;;;;;;;;;;;;;;;;2080597;28;20044;-91
2023/04/18 05:21:00;;;;;;;169.87;46.40;;;;;;;;;;2080177;28;19941;-92
2023/04/18 05:22:00;;;;;;;163.80;45.50;;;;;;;;;;2079366;28;20473;-91
2023/04/18 05:23:01;;;;;;;151.38;45.08;;;;;;;;;;2070549;28;20026;-92
2023/04/18 05:24:01;;;;;;;145.00;42.00;;;;;;;;;;2071136;28;20084;-92
2023/04/18 05:25:02;;;;;;;;;;;;;;;;;;2071782;28;20079;-91
2023/04/18 05:26:04;;;;;;;101.13;33.17;;;;;;;;;;2071248;28;19909;-92
2023/04/18 05:27:05;;;;;;;96.90;35.17;;;;;;;;;;2078445;28;20033;-91
2023/04/18 05:28:07;;;;;;;99.82;31.88;;;;;;;;;;2081922;28;20018;-92
2023/04/18 05:29:07;;;;;;;85.50;30.58;;;;;;;;;;2082191;28;20082;-91
2023/04/18 05:30:11;;;;;;;95.88;32.25;;;;;;;;;;2079367;28;20063;-92
2023/04/18 05:31:12;;;;;;;96.53;34.38;;;;;;;;;;2077622;28;20018;-92
2023/04/18 05:32:12;;;;;;;87.03;34.17;;;;;;;;;;2082610;28;20107;-91
2023/04/18 05:33:13;;;;;;;89.35;32.72;;;;;;;;;;2080201;28;20418;-91
2023/04/18 05:34:13;;;;;;;66.00;30.25;;;;;;;;;;2080240;28;20018;-90
2023/04/18 05:35:31;;;;;;;67.45;29.63;;;;;;;;;;2079457;28;20401;-92
2023/04/18 05:36:32;;;;;;;61.83;27.25;;;;;;;;;;2071108;28;20327;-91
2023/04/18 05:37:32;;;;;;;70.93;38.80;;;;;;;;;;2063378;28;20122;-91
2023/04/18 05:38:36;;;;;;;71.57;38.28;;;;;;;;;;2071123;28;20200;-90
2023/04/18 05:39:36;;;;;;;57.95;28.17;;;;;;;;;;2063191;28;20116;-91
2023/04/18 05:40:36;;;;;;;56.10;28.30;;;;;;;;;;2064812;28;20030;-91
2023/04/18 05:41:57;;;;;;;60.45;25.75;;;;;;;;;;2079576;28;20103;-92
2023/04/18 05:42:57;;;;;;;46.78;22.70;;;;;;;;;;2072082;28;20385;-92
2023/04/18 05:43:58;;;;;;;49.70;24.02;;;;;;;;;;2065054;28;20084;-93
2023/04/18 05:45:04;;;;;;;48.20;22.55;;;;;;;;;;2074800;28;20022;-92
2023/04/18 05:46:05;;;;;;;45.13;21.15;;;;;;;;;;2081819;28;20391;-92
2023/04/18 05:47:06;;;;;;;44.85;22.90;;;;;;;;;;2081902;28;20090;-91
2023/04/18 05:48:13;;;;;;;;;;;;;;;;;;2089672;28;20021;-92
2023/04/18 05:49:29;;;;;;;45.40;25.38;;;;;;;;;;2080818;28;19909;-91
2023/04/18 05:50:29;;;;;;;44.58;21.77;;;;;;;;;;2072982;28;20038;-91
2023/04/18 05:51:49;;;;;;;43.65;23.58;;;;;;;;;;2080731;28;20037;-92
2023/04/18 05:52:50;;;;;;;44.65;22.02;;;;;;;;;;2075796;28;20034;-92
2023/04/18 05:54:04;;;;;;;51.92;23.10;;;;;;;;;;2073496;28;20050;-93
2023/04/18 05:55:07;;;;;;;41.60;21.05;;;;;;;;;;2081964;28;20053;-95
2023/04/18 05:56:07;;;;;;;41.22;20.13;;;;;;;;;;2082108;28;20025;-93
2023/04/18 05:57:07;;;;;;;41.67;21.13;;;;;;;;;;2074135;28;20491;-93
2023/04/18 05:58:08;;;;;;;;;;;;;;;;;;2075016;28;20029;-91
2023/04/18 05:59:08;;;;;;;40.97;21.30;;;;;;;;;;2073232;28;19921;-92
2023/04/18 06:00:10;;;;;;;40.83;19.90;;;;;;;;;;2073102;28;20022;-93
2023/04/18 06:01:13;;;;;;;35.45;18.08;;;;;;;;;;2073815;28;20124;-94
2023/04/18 06:02:13;;;;;;;40.13;19.00;;;;;;;;;;2073229;28;20038;-93
2023/04/18 06:03:13;;;;;;;36.60;18.25;;;;;;;;;;2073060;28;20521;-93